Lower Ranchito, New Mexico
Current Conditions -  °F | °C
As of 8:35 AM on Friday 19 Dec 2014 (Local Time) from KSKX Reporting Station
Overcast Overcast  
Wind Chill: -11°   Ceiling: 300
Heat Index: -7°   Visibility: 8mi
Dew Point: -9°   Wind: 5mph
Humidity: 86%   Direction: 330°NNW
Pressure: 30.2"   Gusts: NA
Location:  36.6959°N, 106.135°W
Report Text: KSKX 191535Z AUTO 33004KT 8SM OVC003 M07/M09 A3020 RMK AO1
Loading
Personal Weather Stations






























Interactive Weather Map New forecast layout! Learn more

10-Day Weather Forecast

Advertisements
Track Severe Weather on mobile